< < Back
Terminal Aerodrome Forecast


Current Version              Previous Versions:   1  2  3  4  5  6  7  8  9  

Terminal Aerodrome Forecast

424
FTUS42 KJAX 311120
TAFSSI
TAF
KSSI 311120Z 3112/0112 27005KT P6SM FEW005 FEW250
     FM311500 15008KT P6SM SCT040
     FM312000 18008KT P6SM VCTS BKN040CB=

Latest METAR

738
SAUS70 KWBC 311100 RRE
MTRSSI
METAR KSSI 311053Z AUTO 25006KT 9SM FEW007 25/24 A2993 RMK AO2 SLP138
T02500244 $


USA.gov is the U.S. government's official web portal to all federal, state and local government web resources and services.